Weather History for KAPY - June, 2013

Change the Weather History Date:

Sunday, June 2, 2013

  Actual Average (KLRD) Record (KLRD)
Temperature  
Mean Temperature 86 °F 86 °F  
Max Temperature 96 °F 97 °F 109 °F (1998)
Min Temperature 76 °F 75 °F 56 °F (1907)
Degree Days  
Heating Degree Days 0 0  
Month to date heating degree days 0  
Since 1 June heating degree days 0  
Since 1 July heating degree days 926  
Cooling Degree Days 21 21  
Month to date cooling degree days 42  
Year to date cooling degree days 1185  
Since 1 June cooling degree days 42  
Growing Degree Days 36 (Base 50)    
Moisture  
Dew Point 69 °F    
Average Humidity 60    
Maximum Humidity 86    
Minimum Humidity 34    
Precipitation  
Precipitation 0.04 in 0.06 in 2.05 in (1909)
Month to date precipitation 0.13  
Year to date precipitation 7.00  
Sea Level Pressure  
Sea Level Pressure 29.89 in    
Wind  
Wind Speed 8 mph (ESE)    
Max Wind Speed 16 mph    
Max Gust Speed 23 mph    
Visibility 10 miles    
Events Rain    
T = Trace of Precipitation, MM = Missing Value Source: NWS Daily Summary

Daily Weather History Graph

Daily Weather History Graph

Search for Another Location

Airport or City:

Trip Planner

Search our weather history database for the weather conditions in past years. The results will help you decide how hot, cold, wet, or windy it might be!

Date:

Astronomy

Jun. 02, 2013 Rise Set
Actual Time 6:42 AM CDT 8:27 PM CDT
Civil Twilight 6:16 AM CDT 8:53 PM CDT
Nautical Twilight 5:45 AM CDT 9:24 PM CDT
Astronomical Twilight 5:12 AM CDT 9:57 PM CDT
Moon 2:42 AM CDT (6/2) 3:24 PM CDT (6/2)
Length of Visible Light 14h 36m
Length of Day
13h 44m
Waning Crescent, 30% of the Moon is Illuminated
Jun 2
Waning Crescent
Jun 8
New
Jun 16
First Quarter
Jun 23
Full
Jun 29
Last Quarter

Hourly Weather History & Observations

Time (CDT) Temp. Heat Index Dew Point Humidity Pressure Visibility Wind Dir Wind Speed Gust Speed Precip Events Conditions
12:15 AM 81.5 °F 85.5 °F 70.9 °F 70% 29.87 in 10.0 mi ESE 12.7 mph 23.0 mph N/A   Scattered Clouds
12:35 AM 81.1 °F 84.9 °F 70.7 °F 70% 29.86 in 10.0 mi SE 15.0 mph 20.7 mph N/A   Mostly Cloudy
12:55 AM 80.6 °F 84.2 °F 70.7 °F 72% 29.86 in 10.0 mi SE 16.1 mph 20.7 mph N/A   Mostly Cloudy
1:15 AM 80.6 °F 84.2 °F 70.7 °F 72% 29.86 in 10.0 mi SE 11.5 mph 16.1 mph N/A   Overcast
1:35 AM 80.6 °F 84.2 °F 70.7 °F 72% 29.87 in 10.0 mi SE 9.2 mph - N/A   Overcast
1:55 AM 80.4 °F 83.9 °F 70.7 °F 72% 29.89 in 10.0 mi ESE 8.1 mph 19.6 mph N/A   Overcast
2:15 AM 80.6 °F 84.2 °F 70.7 °F 72% 29.89 in 10.0 mi SE 5.8 mph - N/A   Overcast
2:35 AM 80.6 °F 83.8 °F 69.6 °F 69% 29.89 in 10.0 mi SE 8.1 mph 17.3 mph N/A   Overcast
2:55 AM 80.8 °F 83.9 °F 69.3 °F 68% 29.88 in 10.0 mi SSE 9.2 mph - N/A   Overcast
3:15 AM 80.6 °F 83.8 °F 69.4 °F 69% 29.87 in 10.0 mi SE 9.2 mph - N/A   Overcast
3:35 AM 80.2 °F 83.1 °F 68.9 °F 68% 29.86 in 10.0 mi SE 11.5 mph - N/A   Mostly Cloudy
3:55 AM 79.9 °F - 69.8 °F 71% 29.85 in 10.0 mi SE 6.9 mph - N/A   Mostly Cloudy
4:15 AM 79.7 °F - 70.0 °F 72% 29.86 in 10.0 mi SE 5.8 mph - N/A   Mostly Cloudy
4:35 AM 79.2 °F - 70.0 °F 73% 29.85 in 10.0 mi SE 5.8 mph - N/A   Scattered Clouds
4:55 AM 79.0 °F - 70.3 °F 75% 29.85 in 10.0 mi SE 6.9 mph - N/A   Clear
5:15 AM 78.4 °F - 70.7 °F 77% 29.87 in 10.0 mi ESE 3.5 mph - N/A   Clear
5:35 AM 77.4 °F - 70.7 °F 80% 29.86 in 10.0 mi ESE 3.5 mph - N/A   Clear
5:55 AM 77.0 °F - 71.1 °F 82% 29.87 in 10.0 mi East 3.5 mph - N/A   Clear
6:15 AM 77.0 °F - 71.2 °F 82% 29.87 in 10.0 mi East 3.5 mph - N/A   Clear
6:35 AM 76.6 °F - 71.4 °F 84% 29.87 in 10.0 mi East 3.5 mph - N/A   Clear
6:55 AM 76.3 °F - 72.0 °F 86% 29.88 in 10.0 mi East 4.6 mph - N/A   Clear
7:15 AM 77.0 °F - 72.3 °F 85% 29.89 in 7.0 mi East 4.6 mph - N/A   Clear
7:35 AM 78.1 °F - 71.8 °F 81% 29.89 in 10.0 mi East 5.8 mph - N/A   Clear
7:55 AM 79.5 °F - 72.1 °F 78% 29.89 in 10.0 mi East 8.1 mph - N/A   Clear
8:15 AM 80.6 °F 84.9 °F 72.5 °F 76% 29.90 in 10.0 mi ESE 8.1 mph - N/A   Clear
8:35 AM 81.5 °F 86.3 °F 72.7 °F 74% 29.91 in 10.0 mi ESE 6.9 mph - N/A   Clear
8:55 AM 82.8 °F 88.4 °F 72.9 °F 72% 29.91 in 10.0 mi ESE 8.1 mph - N/A   Mostly Cloudy
9:15 AM 83.3 °F 88.7 °F 72.3 °F 69% 29.93 in 10.0 mi ESE 10.4 mph 17.3 mph N/A   Overcast
9:35 AM 82.8 °F 87.4 °F 71.4 °F 68% 29.94 in 10.0 mi SE 5.8 mph - N/A   Overcast
9:55 AM 83.3 °F 87.9 °F 71.1 °F 66% 29.95 in 10.0 mi ESE 6.9 mph - N/A   Overcast
10:15 AM 83.3 °F 87.9 °F 71.1 °F 66% 29.96 in 10.0 mi ESE 5.8 mph - N/A   Overcast
10:35 AM 84.2 °F 89.0 °F 70.9 °F 64% 29.97 in 10.0 mi ENE 5.8 mph - N/A   Overcast
10:55 AM 86.2 °F 91.8 °F 71.2 °F 61% 29.97 in 10.0 mi East 6.9 mph - N/A   Overcast
11:15 AM 87.3 °F 92.8 °F 70.7 °F 58% 29.97 in 10.0 mi East 5.8 mph - N/A   Mostly Cloudy
11:35 AM 88.0 °F 92.9 °F 70.0 °F 55% 29.97 in 10.0 mi ENE 4.6 mph - N/A   Mostly Cloudy
11:55 AM 88.3 °F 92.8 °F 69.3 °F 53% 29.95 in 10.0 mi East 5.8 mph - N/A   Mostly Cloudy
12:15 PM 90.7 °F 95.0 °F 68.7 °F 48% 29.95 in 10.0 mi East 4.6 mph - N/A   Scattered Clouds
12:35 PM 90.9 °F 95.3 °F 68.7 °F 48% 29.95 in 7.0 mi ENE 9.2 mph - N/A   Clear
12:55 PM 91.6 °F 95.2 °F 67.3 °F 45% 29.94 in 10.0 mi East 8.1 mph - N/A   Scattered Clouds
1:15 PM 93.0 °F 96.9 °F 67.8 °F 43% 29.94 in 10.0 mi ENE 9.2 mph - N/A   Scattered Clouds
1:35 PM 92.7 °F 95.8 °F 66.6 °F 42% 29.94 in 10.0 mi East 8.1 mph - N/A   Scattered Clouds
1:55 PM 93.4 °F 97.0 °F 67.3 °F 42% 29.94 in 10.0 mi East 6.9 mph - N/A   Mostly Cloudy
2:15 PM 94.8 °F 98.7 °F 66.7 °F 40% 29.93 in 10.0 mi East 3.5 mph - N/A   Scattered Clouds
2:35 PM 93.4 °F 96.6 °F 66.4 °F 41% 29.92 in 10.0 mi ESE 3.5 mph - N/A   Scattered Clouds
2:55 PM 95.0 °F 97.9 °F 65.5 °F 38% 29.91 in 10.0 mi East 6.9 mph - N/A   Scattered Clouds
3:15 PM 95.4 °F 97.1 °F 63.7 °F 35% 29.89 in 10.0 mi NE 3.5 mph - N/A   Clear
3:35 PM 95.7 °F 97.7 °F 64.2 °F 35% 29.88 in 10.0 mi Calm Calm - N/A   Clear
3:55 PM 96.1 °F 97.8 °F 63.3 °F 34% 29.87 in 10.0 mi SE 5.8 mph - N/A   Mostly Cloudy
4:15 PM 86.0 °F 89.7 °F 68.7 °F 56% 29.87 in 3.0 mi Calm Calm - 0.03 in Rain Rain
4:35 PM 88.0 °F 95.6 °F 73.0 °F 61% 29.86 in 10.0 mi South 4.6 mph - 0.04 in   Scattered Clouds
4:55 PM 90.0 °F 97.4 °F 72.1 °F 56% 29.85 in 10.0 mi WSW 4.6 mph - 0.04 in   Clear
5:15 PM 91.9 °F 97.4 °F 69.8 °F 48% 29.85 in 10.0 mi South 3.5 mph - N/A   Clear
5:35 PM 93.7 °F 96.2 °F 65.5 °F 39% 29.84 in 10.0 mi Calm Calm - N/A   Clear
5:55 PM 94.5 °F 97.0 °F 65.1 °F 38% 29.83 in 10.0 mi SE 3.5 mph - N/A   Clear
6:15 PM 92.3 °F 95.6 °F 66.9 °F 43% 29.82 in 10.0 mi SE 4.6 mph - N/A   Clear
6:35 PM 92.3 °F 95.1 °F 66.0 °F 42% 29.82 in 10.0 mi East 8.1 mph - N/A   Clear
6:55 PM 92.3 °F 95.1 °F 66.2 °F 42% 29.82 in 10.0 mi East 8.1 mph - N/A   Clear
7:15 PM 91.4 °F 94.9 °F 67.3 °F 45% 29.82 in 10.0 mi ESE 8.1 mph - N/A   Clear
7:35 PM 90.9 °F 93.5 °F 66.4 °F 44% 29.83 in 10.0 mi ESE 10.4 mph - N/A   Clear
7:55 PM 90.3 °F 92.2 °F 65.3 °F 43% 29.83 in 10.0 mi ESE 10.4 mph - N/A   Clear
8:15 PM 89.1 °F 91.0 °F 65.1 °F 45% 29.84 in 10.0 mi ESE 10.4 mph - N/A   Clear
8:35 PM 88.0 °F 91.4 °F 67.6 °F 51% 29.84 in 10.0 mi ESE 10.4 mph - N/A   Clear
8:55 PM 87.1 °F 90.2 °F 67.3 °F 52% 29.85 in 10.0 mi East 10.4 mph 17.3 mph N/A   Clear
9:15 PM 86.4 °F 89.7 °F 68.0 °F 54% 29.85 in 10.0 mi ESE 10.4 mph - N/A   Clear
9:35 PM 85.1 °F 89.1 °F 69.3 °F 59% 29.86 in 10.0 mi ESE 9.2 mph - N/A   Clear
9:55 PM 84.6 °F 88.5 °F 69.3 °F 60% 29.86 in 10.0 mi ESE 10.4 mph 17.3 mph N/A   Clear
10:15 PM 84.0 °F 88.1 °F 69.8 °F 62% 29.87 in 10.0 mi ESE 11.5 mph - N/A   Clear
10:35 PM 82.9 °F 87.0 °F 70.0 °F 65% 29.88 in 10.0 mi SE 9.2 mph - N/A   Clear
10:55 PM 82.4 °F 86.3 °F 69.8 °F 66% 29.89 in 10.0 mi SE 12.7 mph - N/A   Clear
11:15 PM 81.7 °F 84.9 °F 68.9 °F 65% 29.90 in 10.0 mi SE 9.2 mph - N/A   Clear
11:35 PM 81.5 °F 83.7 °F 66.2 °F 60% 29.91 in 10.0 mi SE 11.5 mph 20.7 mph N/A   Clear
11:55 PM 81.0 °F 82.5 °F 64.0 °F 56% 29.92 in 10.0 mi SE 10.4 mph 18.4 mph N/A   Scattered Clouds